Warken, Luxembourg
Current Conditions -  °F | °C
As of 5:20 PM on Friday 19 Dec 2014 (Local Time) from ELLX Reporting Station
Moderate Rain Moderate Rain  
Wind Chill: 50°   Ceiling: 800
Heat Index: 50°   Visibility: 4mi
Dew Point: 48°   Wind: 17mph
Humidity: 94%   Direction: 260°W
Pressure: 29.97"   Gusts: NA
Location:  49.85°N, 6.1°E
Report Text: ELLX 191620Z 26015KT 230V300 6000 RA SCT005 BKN008 10/09 Q1015 TEMPO 5000 RA
Loading
Personal Weather Stations






























Interactive Weather Map New forecast layout! Learn more

10-Day Weather Forecast

Advertisements
Track Severe Weather on mobile